createdAt,value
2022-10-22T00:02:20.629Z,8.55
2022-10-22T00:04:49.440Z,8.45
2022-10-22T00:07:17.776Z,8.02
2022-10-22T00:09:44.630Z,7.53
2022-10-22T00:12:12.449Z,7.63
2022-10-22T00:14:40.865Z,8.70
2022-10-22T00:17:11.190Z,8.80
2022-10-22T00:19:39.329Z,8.25
2022-10-22T00:22:06.577Z,8.57
2022-10-22T00:24:35.069Z,8.02
2022-10-22T00:27:02.445Z,8.07
2022-10-22T00:29:29.326Z,9.27
2022-10-22T00:34:28.657Z,8.55
2022-10-22T00:36:55.472Z,8.95
2022-10-22T00:39:24.279Z,7.97
2022-10-22T00:41:53.306Z,8.13
2022-10-22T00:44:57.682Z,8.30
2022-10-22T00:47:26.032Z,7.72
2022-10-22T00:49:54.174Z,8.43
2022-10-22T00:52:21.868Z,8.15
2022-10-22T00:54:50.168Z,9.48
2022-10-22T00:57:19.348Z,7.05
2022-10-22T00:59:46.745Z,7.80
2022-10-22T01:02:13.517Z,7.43
2022-10-22T01:04:41.581Z,8.02
2022-10-22T01:07:16.511Z,8.93
2022-10-22T01:09:50.370Z,8.98
2022-10-22T01:12:35.592Z,8.00
2022-10-22T01:15:25.252Z,7.82
2022-10-22T01:18:01.206Z,8.63
2022-10-22T01:21:14.654Z,9.05
2022-10-22T01:23:59.844Z,8.82
2022-10-22T01:26:56.973Z,8.02
2022-10-22T01:29:32.465Z,8.38
2022-10-22T01:32:02.757Z,8.80
2022-10-22T01:34:30.728Z,8.45
2022-10-22T01:36:59.270Z,9.70
2022-10-22T01:39:29.422Z,9.07
2022-10-22T01:41:56.988Z,8.77
2022-10-22T01:44:31.556Z,9.65
2022-10-22T01:47:40.994Z,9.80
2022-10-22T01:50:56.103Z,9.05
2022-10-22T01:53:46.513Z,8.73
2022-10-22T01:56:25.564Z,8.93
2022-10-22T01:58:59.644Z,8.95
2022-10-22T02:01:51.108Z,8.95
2022-10-22T02:04:23.257Z,8.73
2022-10-22T02:06:54.856Z,9.23
2022-10-22T02:09:25.207Z,8.65
2022-10-22T02:11:53.958Z,7.95
2022-10-22T02:14:21.843Z,8.52
2022-10-22T02:16:50.646Z,9.85
2022-10-22T02:19:26.490Z,8.27
2022-10-22T02:21:54.501Z,8.30
2022-10-22T02:24:22.511Z,9.07
2022-10-22T02:26:54.606Z,8.35
2022-10-22T02:29:40.277Z,9.55
2022-10-22T02:32:10.223Z,8.75
2022-10-22T02:34:36.970Z,9.15
2022-10-22T02:37:05.279Z,8.90
2022-10-22T02:39:33.232Z,10.48
2022-10-22T02:42:02.497Z,10.15
2022-10-22T02:44:29.316Z,9.63
2022-10-22T02:46:56.104Z,9.68
2022-10-22T02:49:22.847Z,10.82
2022-10-22T02:51:49.672Z,9.73
2022-10-22T02:54:16.514Z,9.88
2022-10-22T02:56:43.259Z,11.25
2022-10-22T02:59:10.046Z,10.55
2022-10-22T03:01:36.832Z,10.45
2022-10-22T03:04:03.917Z,10.02
2022-10-22T03:06:30.837Z,9.27
2022-10-22T03:08:57.671Z,9.18
2022-10-22T03:11:24.553Z,8.25
2022-10-22T03:13:51.320Z,9.32
2022-10-22T03:16:18.139Z,8.48
2022-10-22T03:18:44.934Z,8.20
2022-10-22T03:21:26.205Z,8.13
2022-10-22T03:23:53.751Z,8.45
2022-10-22T03:26:21.104Z,9.05
2022-10-22T03:28:48.707Z,9.27
2022-10-22T03:31:15.643Z,7.78
2022-10-22T03:33:42.413Z,8.80
2022-10-22T03:36:09.737Z,8.23
2022-10-22T03:38:40.162Z,7.82
2022-10-22T03:41:07.592Z,7.60
2022-10-22T03:43:35.858Z,8.50
2022-10-22T03:46:02.662Z,7.30
2022-10-22T03:48:29.538Z,8.32
2022-10-22T03:50:56.283Z,8.80
2022-10-22T03:53:23.090Z,8.18
2022-10-22T03:55:49.919Z,8.95
2022-10-22T03:58:16.937Z,8.52
2022-10-22T04:00:43.720Z,9.80
2022-10-22T04:03:10.539Z,8.70
2022-10-22T04:05:37.289Z,9.00
2022-10-22T04:08:04.261Z,8.77
2022-10-22T04:10:31.001Z,9.73
2022-10-22T04:12:57.773Z,8.40
2022-10-22T04:15:28.084Z,10.25
2022-10-22T04:17:55.345Z,8.20
2022-10-22T04:20:22.181Z,8.57
2022-10-22T04:22:49.017Z,9.77
2022-10-22T04:25:15.811Z,9.35
2022-10-22T04:27:42.804Z,9.88
2022-10-22T04:30:10.323Z,10.65
2022-10-22T04:32:37.136Z,10.70
2022-10-22T04:35:04.240Z,11.10
2022-10-22T04:37:32.801Z,10.30
2022-10-22T04:39:59.636Z,11.50
2022-10-22T04:42:26.740Z,12.43
2022-10-22T04:44:53.489Z,13.38
2022-10-22T04:47:20.364Z,12.38
2022-10-22T04:49:47.430Z,13.70
2022-10-22T04:52:14.169Z,13.25
2022-10-22T04:54:41.198Z,14.90
2022-10-22T04:57:07.998Z,14.30
2022-10-22T04:59:34.826Z,13.80
2022-10-22T05:02:01.735Z,13.82
2022-10-22T05:04:28.477Z,14.13
2022-10-22T05:06:55.276Z,13.90
2022-10-22T05:09:22.267Z,12.13
2022-10-22T05:11:51.585Z,14.18
2022-10-22T05:14:22.311Z,13.82
2022-10-22T05:16:50.194Z,13.57
2022-10-22T05:19:25.048Z,12.15
2022-10-22T05:21:56.388Z,12.75
2022-10-22T05:24:23.420Z,13.65
2022-10-22T05:26:55.074Z,13.77
2022-10-22T05:29:23.180Z,13.05
2022-10-22T05:31:50.430Z,12.63
2022-10-22T05:34:17.503Z,12.55
2022-10-22T05:36:44.298Z,12.23
2022-10-22T05:39:11.277Z,11.95
2022-10-22T05:41:38.596Z,12.30
2022-10-22T05:44:05.905Z,12.25
2022-10-22T05:46:35.347Z,12.05
2022-10-22T05:49:04.567Z,11.77
2022-10-22T05:51:34.013Z,11.93
2022-10-22T05:54:03.662Z,10.88
2022-10-22T05:56:32.133Z,11.20
2022-10-22T05:58:59.687Z,10.20
2022-10-22T06:01:29.353Z,10.50
2022-10-22T06:04:01.768Z,10.75
2022-10-22T06:06:37.566Z,12.00
2022-10-22T06:09:11.188Z,10.23
2022-10-22T06:11:37.956Z,9.93
2022-10-22T06:14:05.148Z,10.50
2022-10-22T06:16:32.514Z,10.02
2022-10-22T06:19:02.101Z,9.73
2022-10-22T06:21:29.592Z,10.02
2022-10-22T06:24:00.574Z,9.68
2022-10-22T06:26:28.005Z,10.98
2022-10-22T06:28:56.097Z,9.30
2022-10-22T06:31:23.793Z,9.48
2022-10-22T06:33:50.543Z,11.48
2022-10-22T06:36:20.031Z,12.48
2022-10-22T06:38:47.297Z,10.55
2022-10-22T06:41:16.307Z,12.18
2022-10-22T06:43:45.361Z,10.63
2022-10-22T06:46:14.919Z,11.18
2022-10-22T06:48:49.293Z,11.27
2022-10-22T06:51:16.074Z,11.52
2022-10-22T06:53:42.866Z,10.15
2022-10-22T06:56:13.353Z,9.98
2022-10-22T06:58:40.139Z,9.60
2022-10-22T07:01:13.230Z,9.75
2022-10-22T07:03:41.209Z,9.00
2022-10-22T07:06:10.967Z,9.38
2022-10-22T07:08:38.896Z,10.00
2022-10-22T07:11:09.145Z,9.68
2022-10-22T07:13:36.538Z,9.20
2022-10-22T07:16:04.754Z,8.40
2022-10-22T07:18:32.006Z,9.65
2022-10-22T07:20:59.688Z,9.32
2022-10-22T07:23:27.191Z,10.05
2022-10-22T07:25:54.023Z,10.25
2022-10-22T07:28:20.946Z,9.45
2022-10-22T07:30:47.816Z,10.48
2022-10-22T07:33:14.740Z,10.63
2022-10-22T07:35:41.943Z,10.55
2022-10-22T07:38:09.331Z,10.85
2022-10-22T07:40:36.953Z,9.68
2022-10-22T07:43:04.773Z,10.70
2022-10-22T07:45:31.955Z,10.65
2022-10-22T07:48:00.539Z,11.20
2022-10-22T07:50:27.343Z,9.38
2022-10-22T07:52:56.078Z,7.63
2022-10-22T07:55:24.369Z,7.00
2022-10-22T07:57:51.267Z,5.30
2022-10-22T08:00:20.488Z,3.75
2022-10-22T08:02:50.000Z,4.25
2022-10-22T08:05:16.902Z,3.30
2022-10-22T08:07:44.206Z,3.30
2022-10-22T08:10:12.622Z,3.38
2022-10-22T08:12:40.700Z,3.25
2022-10-22T08:15:08.396Z,3.10
2022-10-22T08:17:35.221Z,2.25
2022-10-22T08:20:02.030Z,2.25
2022-10-22T08:22:28.838Z,2.50
2022-10-22T08:24:55.570Z,2.20
2022-10-22T08:27:22.494Z,2.28
2022-10-22T08:29:49.357Z,2.38
2022-10-22T08:32:16.211Z,1.70
2022-10-22T08:34:43.023Z,1.90
2022-10-22T08:37:14.244Z,2.40
2022-10-22T08:39:41.433Z,2.03
2022-10-22T08:42:30.412Z,2.47
2022-10-22T08:45:00.253Z,2.30
2022-10-22T08:47:39.083Z,2.13
2022-10-22T08:50:09.440Z,1.77
2022-10-22T08:52:40.061Z,1.45
2022-10-22T08:55:14.303Z,1.63
2022-10-22T08:58:05.935Z,2.53
2022-10-22T09:00:42.388Z,1.73
2022-10-22T09:03:30.702Z,2.33
2022-10-22T09:06:00.238Z,1.20
2022-10-22T09:08:27.285Z,2.30
2022-10-22T09:11:15.553Z,1.60
2022-10-22T09:13:45.296Z,1.58
2022-10-22T09:16:17.362Z,2.17
2022-10-22T09:18:50.076Z,1.43
2022-10-22T09:21:58.550Z,1.33
2022-10-22T09:24:37.253Z,1.42
2022-10-22T09:27:19.915Z,2.25
2022-10-22T09:29:48.389Z,2.00
2022-10-22T09:32:16.509Z,1.50
2022-10-22T09:34:50.302Z,2.10
2022-10-22T09:37:19.917Z,1.70
2022-10-22T09:39:53.042Z,2.08
2022-10-22T09:42:20.983Z,1.90
2022-10-22T09:44:56.492Z,1.90
2022-10-22T09:48:00.652Z,1.85
2022-10-22T09:50:54.877Z,2.47
2022-10-22T09:53:31.085Z,1.52
2022-10-22T09:56:01.040Z,1.30
2022-10-22T09:58:28.260Z,1.30
2022-10-22T10:00:58.466Z,1.75
2022-10-22T10:03:28.807Z,1.95
2022-10-22T10:06:03.007Z,1.70
2022-10-22T10:08:33.027Z,1.48
2022-10-22T10:11:10.170Z,1.80
2022-10-22T10:14:13.507Z,1.58
2022-10-22T10:16:46.993Z,1.40
2022-10-22T10:19:29.023Z,1.83
2022-10-22T10:22:27.436Z,1.95
2022-10-22T10:25:13.205Z,1.73
2022-10-22T10:27:44.995Z,2.83
2022-10-22T10:30:19.723Z,2.40
2022-10-22T10:32:55.733Z,2.00
2022-10-22T10:35:55.365Z,1.20
2022-10-22T10:38:35.509Z,1.25
2022-10-22T10:41:23.487Z,1.30
2022-10-22T10:44:17.176Z,0.95
2022-10-22T10:47:05.884Z,0.68
2022-10-22T10:49:36.787Z,1.20
2022-10-22T10:52:21.548Z,1.40
2022-10-22T10:54:57.080Z,1.20
2022-10-22T10:58:01.201Z,1.20
2022-10-22T11:00:34.090Z,1.10
2022-10-22T11:05:58.572Z,2.40
2022-10-22T11:08:34.253Z,1.50
2022-10-22T11:11:36.524Z,1.40
2022-10-22T11:14:19.938Z,1.75
2022-10-22T11:16:59.077Z,1.50
2022-10-22T11:19:50.933Z,1.30
2022-10-22T11:22:32.993Z,1.65
2022-10-22T11:25:06.622Z,1.67
2022-10-22T11:27:42.363Z,1.70
2022-10-22T11:30:14.770Z,1.58
2022-10-22T11:32:44.500Z,1.53
2022-10-22T11:35:20.228Z,1.80
2022-10-22T11:37:51.600Z,2.03
2022-10-22T11:40:32.123Z,1.92
2022-10-22T11:43:05.758Z,1.92
2022-10-22T11:45:40.150Z,1.95
2022-10-22T11:48:14.898Z,2.50
2022-10-22T11:50:42.626Z,2.03
2022-10-22T11:53:14.869Z,2.08
2022-10-22T11:55:46.040Z,3.17
2022-10-22T11:58:45.018Z,2.05
2022-10-22T12:01:11.797Z,2.10
2022-10-22T12:03:40.915Z,1.88
2022-10-22T12:06:13.264Z,1.95
2022-10-22T12:08:53.126Z,1.90
2022-10-22T12:11:28.977Z,2.30
2022-10-22T12:14:01.106Z,1.85
2022-10-22T12:16:55.204Z,1.90
2022-10-22T12:19:23.224Z,1.70
2022-10-22T12:21:55.138Z,2.03
2022-10-22T12:24:24.965Z,2.33
2022-10-22T12:26:52.783Z,1.90
2022-10-22T12:29:26.630Z,2.13
2022-10-22T12:31:54.206Z,2.00
2022-10-22T12:34:25.328Z,1.70
2022-10-22T12:36:56.963Z,1.45
2022-10-22T12:39:27.270Z,1.80
2022-10-22T12:41:55.354Z,1.50
2022-10-22T12:44:22.102Z,1.50
2022-10-22T12:46:52.972Z,1.50
2022-10-22T12:52:10.844Z,1.20
2022-10-22T12:54:40.573Z,1.80
2022-10-22T12:57:13.532Z,0.93
2022-10-22T12:59:47.233Z,1.23
2022-10-22T13:02:24.636Z,1.58
2022-10-22T13:05:19.431Z,1.02
2022-10-22T13:07:52.274Z,0.95
2022-10-22T15:25:32.226Z,1.55
2022-10-22T15:28:03.415Z,1.10
2022-10-22T15:30:34.420Z,1.25
2022-10-22T15:33:02.023Z,1.65
2022-10-22T15:35:28.816Z,1.35
2022-10-22T15:37:55.807Z,1.13
2022-10-22T15:40:22.781Z,1.38
2022-10-22T15:42:49.506Z,1.70
2022-10-22T15:45:16.615Z,2.33
2022-10-22T15:47:48.529Z,1.60
2022-10-22T15:50:15.892Z,2.30
2022-10-22T15:52:42.666Z,2.60
2022-10-22T15:55:10.659Z,2.30
2022-10-22T15:57:38.609Z,3.08
2022-10-22T16:00:06.751Z,2.47
2022-10-22T16:02:33.670Z,3.08
2022-10-22T16:05:00.503Z,2.55
2022-10-22T16:07:27.344Z,2.33
2022-10-22T16:09:58.384Z,2.58
2022-10-22T16:12:25.273Z,2.30
2022-10-22T16:14:52.031Z,3.40
2022-10-22T16:17:18.983Z,2.55
2022-10-22T16:19:47.329Z,2.92
2022-10-22T16:22:15.640Z,2.58
